Time;durP1;ratioP1;P1;durP2;ratioP2;P2;SDS_P1;SDS_P2;PMS_P1;PMS_P2;Temp;Humidity;BMP_temperature;BMP_pressure;BME280_temperature;BME280_humidity;BME280_pressure;Samples;Min_cycle;Max_cycle;Signal;HPM_P1;HPM_P2
2023/02/26 00:00:25;;;;;;;5.55;1.50;;;;;;;-0.10;100.00;102067.44;5075898;28;20032;-76
2023/02/26 00:02:50;;;;;;;7.90;1.40;;;;;;;-0.09;100.00;102074.41;5075648;28;20449;-76
2023/02/26 00:05:16;;;;;;;8.80;1.75;;;;;;;-0.09;100.00;102082.25;5075296;28;20028;-75
2023/02/26 00:07:42;;;;;;;7.22;2.05;;;;;;;-0.11;100.00;102086.66;5075419;28;20032;-76
2023/02/26 00:10:10;;;;;;;4.50;1.73;;;;;;;-0.13;100.00;102085.84;5075400;28;20024;-76
2023/02/26 00:12:36;;;;;;;7.88;1.30;;;;;;;-0.17;100.00;102092.03;5075458;28;20025;-76
2023/02/26 00:15:02;;;;;;;5.80;1.27;;;;;;;-0.17;100.00;102091.19;5075175;28;20074;-76
2023/02/26 00:17:41;;;;;;;2.78;0.80;;;;;;;-0.20;100.00;102087.75;5057597;28;20037;-76
2023/02/26 00:20:10;;;;;;;4.20;1.20;;;;;;;-0.21;100.00;102091.28;5075201;28;20441;-76
2023/02/26 00:22:36;;;;;;;1.50;0.90;;;;;;;-0.24;100.00;102100.94;5075687;28;20032;-76
2023/02/26 00:25:01;;;;;;;6.47;1.55;;;;;;;-0.28;100.00;102100.16;5057075;28;20026;-76
2023/02/26 00:27:27;;;;;;;4.57;1.02;;;;;;;-0.31;100.00;102101.97;5075390;28;20457;-77
2023/02/26 00:29:53;;;;;;;12.60;1.48;;;;;;;-0.31;100.00;102104.59;5075020;28;20035;-76
2023/02/26 00:32:18;;;;;;;1.80;1.00;;;;;;;-0.29;100.00;102110.66;5074476;28;20349;-77
2023/02/26 00:34:46;;;;;;;12.80;1.30;;;;;;;-0.24;100.00;102116.63;5074863;28;20051;-76
2023/02/26 00:37:43;;;;;;;2.58;1.17;;;;;;;-0.24;100.00;102109.66;5074715;28;20108;-76
2023/02/26 00:40:42;;;;;;;7.32;1.52;;;;;;;-0.18;100.00;102121.72;5074883;28;20067;-76
2023/02/26 00:43:13;;;;;;;3.00;1.20;;;;;;;-0.15;100.00;102131.25;5074366;28;20020;-76
2023/02/26 00:46:02;;;;;;;8.18;2.03;;;;;;;-0.16;100.00;102132.13;5075194;28;20025;-76
2023/02/26 00:48:52;;;;;;;10.27;2.25;;;;;;;-0.23;100.00;102136.69;5043358;28;20273;-76
2023/02/26 00:51:30;;;;;;;5.35;1.33;;;;;;;-0.31;100.00;102138.59;5074588;28;20114;-76
2023/02/26 00:54:24;;;;;;;5.10;1.15;;;;;;;-0.40;100.00;102132.72;5075035;28;20028;-76
2023/02/26 00:56:51;;;;;;;6.43;1.30;;;;;;;-0.38;100.00;102145.75;5074503;28;20044;-76
2023/02/26 00:59:18;;;;;;;3.30;1.05;;;;;;;-0.32;100.00;102147.38;5056920;28;20028;-76
2023/02/26 01:01:44;;;;;;;3.92;1.05;;;;;;;-0.27;100.00;102148.09;5075492;28;20078;-77
2023/02/26 01:04:10;;;;;;;9.63;1.60;;;;;;;-0.22;100.00;102144.47;5075376;28;20036;-76
2023/02/26 01:06:45;;;;;;;2.72;0.90;;;;;;;-0.16;100.00;102146.09;5074345;28;20064;-76
2023/02/26 01:09:10;;;;;;;2.38;1.23;;;;;;;-0.07;100.00;102147.63;5074206;28;20420;-77
2023/02/26 01:11:36;;;;;;;2.33;0.80;;;;;;;0.01;100.00;102163.13;5056546;28;20029;-77
2023/02/26 01:14:03;;;;;;;5.30;1.17;;;;;;;0.05;100.00;102156.94;5089501;28;20041;-76
2023/02/26 01:16:33;;;;;;;6.78;1.10;;;;;;;0.10;100.00;102152.44;5074541;28;20044;-76
2023/02/26 01:19:04;;;;;;;4.53;1.23;;;;;;;0.14;100.00;102159.31;5074876;28;20036;-76
2023/02/26 01:21:39;;;;;;;3.08;0.98;;;;;;;0.19;100.00;102165.28;5056823;28;20056;-77
2023/02/26 01:24:07;;;;;;;8.93;1.25;;;;;;;0.22;100.00;102170.44;5073814;28;20032;-77
2023/02/26 01:26:33;;;;;;;9.98;1.30;;;;;;;0.23;100.00;102171.31;5074435;28;20028;-77
2023/02/26 01:28:59;;;;;;;3.13;1.20;;;;;;;0.19;100.00;102180.13;5074302;28;20031;-77
2023/02/26 01:31:48;;;;;;;4.70;1.38;;;;;;;0.11;100.00;102180.31;5073785;28;20024;-76
2023/02/26 01:34:24;;;;;;;5.80;1.48;;;;;;;0.06;100.00;102180.44;5055703;28;20107;-76
2023/02/26 01:37:01;;;;;;;11.18;1.20;;;;;;;0.04;100.00;102184.84;5073969;28;20024;-76
2023/02/26 01:39:35;;;;;;;8.23;1.42;;;;;;;-0.01;100.00;102191.97;5073717;28;20024;-77
2023/02/26 01:42:16;;;;;;;6.28;1.20;;;;;;;-0.10;100.00;102187.81;5074140;28;20114;-76
2023/02/26 01:44:58;;;;;;;4.05;1.02;;;;;;;-0.22;100.00;102186.34;5073813;28;20024;-76
2023/02/26 01:47:38;;;;;;;10.88;1.65;;;;;;;-0.26;100.00;102194.31;5072537;28;20020;-77
2023/02/26 01:50:13;;;;;;;6.57;1.63;;;;;;;-0.29;100.00;102197.00;5073479;28;20048;-77
2023/02/26 01:52:47;;;;;;;10.98;1.55;;;;;;;-0.35;100.00;102198.00;5072183;28;20387;-77
2023/02/26 01:55:19;;;;;;;6.18;1.15;;;;;;;-0.42;100.00;102199.91;5055225;28;20031;-76
2023/02/26 01:57:46;;;;;;;9.70;1.30;;;;;;;-0.52;100.00;102207.97;5073763;28;20035;-77
2023/02/26 02:00:12;;;;;;;7.28;1.45;;;;;;;-0.66;100.00;102209.13;5055423;28;20030;-76
2023/02/26 02:02:37;;;;;;;5.15;1.30;;;;;;;-0.78;100.00;102210.25;5055864;28;20029;-77
2023/02/26 02:05:11;;;;;;;3.00;1.17;;;;;;;-0.90;100.00;102214.00;5073515;28;20103;-77
2023/02/26 02:07:36;;;;;;;7.05;1.40;;;;;;;-1.02;100.00;102216.84;5073660;28;20028;-77
2023/02/26 02:10:02;;;;;;;7.22;1.58;;;;;;;-1.16;100.00;102222.34;5073358;28;20062;-77
2023/02/26 02:12:37;;;;;;;5.60;1.25;;;;;;;-1.30;100.00;102222.63;5072898;28;20040;-76
2023/02/26 02:15:11;;;;;;;7.75;1.05;;;;;;;-1.45;100.00;102226.38;5073314;28;20021;-77
2023/02/26 02:17:48;;;;;;;4.07;1.05;;;;;;;-1.57;100.00;102216.13;5073375;28;20032;-77
2023/02/26 02:20:41;;;;;;;6.05;1.25;;;;;;;-1.69;100.00;102227.63;5054992;28;20028;-76
2023/02/26 02:23:43;;;;;;;11.45;1.70;;;;;;;-1.80;100.00;102233.06;5073208;28;20023;-76
2023/02/26 02:26:33;;;;;;;7.82;1.48;;;;;;;-1.87;100.00;102236.63;5072847;28;20031;-75
2023/02/26 02:29:27;;;;;;;7.10;1.20;;;;;;;-1.94;100.00;102229.81;5073146;28;20044;-76
2023/02/26 02:32:12;;;;;;;9.68;1.30;;;;;;;-2.06;100.00;102238.69;5072973;28;20028;-77
2023/02/26 02:34:50;;;;;;;4.43;1.23;;;;;;;-2.13;100.00;102237.91;5072930;28;20040;-76
2023/02/26 02:37:34;;;;;;;6.50;1.30;;;;;;;-2.21;100.00;102247.63;5072254;28;20087;-76
2023/02/26 02:40:14;;;;;;;8.07;1.40;;;;;;;-2.28;100.00;102253.81;5073048;28;20051;-76
2023/02/26 02:42:48;;;;;;;7.07;1.13;;;;;;;-2.38;100.00;102257.41;5073105;28;20033;-77
2023/02/26 02:45:24;;;;;;;5.38;1.30;;;;;;;-2.46;100.00;102260.13;5072336;28;20031;-76
2023/02/26 02:47:56;;;;;;;4.18;1.33;;;;;;;-2.52;100.00;102266.28;5073281;28;20027;-76
2023/02/26 02:50:24;;;;;;;6.80;1.52;;;;;;;-2.60;100.00;102260.28;5072707;28;20134;-76
2023/02/26 02:52:59;;;;;;;5.18;1.00;;;;;;;-2.66;100.00;102273.41;5072723;28;20020;-76
2023/02/26 02:55:45;;;;;;;5.18;0.70;;;;;;;-2.76;100.00;102267.47;5072318;28;20028;-75
2023/02/26 02:58:13;;;;;;;4.85;1.15;;;;;;;-2.81;100.00;102276.19;5054735;28;20103;-75
2023/02/26 03:00:48;;;;;;;4.70;1.63;;;;;;;-2.88;100.00;102272.78;5072685;28;20047;-75
2023/02/26 03:03:22;;;;;;;4.20;1.17;;;;;;;-2.93;100.00;102269.38;5072042;28;20029;-75
2023/02/26 03:05:47;;;;;;;2.35;0.88;;;;;;;-2.98;100.00;102277.25;5072468;28;20029;-76
2023/02/26 03:08:17;;;;;;;8.25;1.77;;;;;;;-3.05;100.00;102281.66;5072668;28;20100;-75
2023/02/26 03:10:43;;;;;;;3.58;1.20;;;;;;;-3.11;100.00;102284.31;5054410;28;20372;-75
2023/02/26 03:13:20;;;;;;;3.80;1.20;;;;;;;-3.19;100.00;102279.19;5072831;28;20032;-76
2023/02/26 03:16:12;;;;;;;5.10;1.27;;;;;;;-3.21;100.00;102283.56;5072128;28;20093;-76
2023/02/26 03:19:08;;;;;;;13.32;1.42;;;;;;;-3.22;100.00;102294.84;5071874;28;20452;-76
2023/02/26 03:21:44;;;;;;;7.80;1.17;;;;;;;-3.24;100.00;102283.59;5071992;28;20055;-76
2023/02/26 03:24:24;;;;;;;3.35;1.20;;;;;;;-3.25;100.00;102286.22;5072468;28;20034;-76
2023/02/26 03:26:55;;;;;;;3.33;1.10;;;;;;;-3.21;100.00;102298.31;5072417;28;20044;-76
2023/02/26 03:29:37;;;;;;;4.82;0.98;;;;;;;-3.15;100.00;102292.19;5071683;28;20463;-76
2023/02/26 03:32:18;;;;;;;6.78;1.15;;;;;;;-3.11;100.00;102299.94;5072214;28;20076;-76
2023/02/26 03:34:53;;;;;;;7.65;1.30;;;;;;;-3.08;100.00;102299.91;5072585;28;20029;-76
2023/02/26 03:37:31;;;;;;;3.60;0.85;;;;;;;-3.06;100.00;102303.38;5071985;28;20145;-76
2023/02/26 03:40:05;;;;;;;13.02;2.28;;;;;;;-3.08;100.00;102302.53;5072150;28;20035;-75
2023/02/26 03:42:52;;;;;;;4.30;1.38;;;;;;;-3.09;100.00;102308.63;5054029;28;20456;-74
2023/02/26 03:45:24;;;;;;;7.68;1.10;;;;;;;-3.08;100.00;102310.34;5072269;28;20024;-76
2023/02/26 03:47:52;;;;;;;3.78;1.30;;;;;;;-3.11;100.00;102318.19;5072234;28;20111;-76
2023/02/26 03:50:29;;;;;;;9.13;1.40;;;;;;;-3.14;100.00;102314.75;5072197;28;20047;-77
2023/02/26 03:52:58;;;;;;;3.33;1.08;;;;;;;-3.17;100.00;102313.03;5071841;28;20056;-76
2023/02/26 03:55:33;;;;;;;4.45;1.15;;;;;;;-3.13;100.00;102317.34;5071425;28;20025;-76
2023/02/26 03:57:58;;;;;;;4.70;1.48;;;;;;;-3.09;100.00;102321.66;5072363;28;20040;-76
2023/02/26 04:00:26;;;;;;;7.70;1.38;;;;;;;-3.03;100.00;102320.69;5071731;28;20056;-76
2023/02/26 04:03:00;;;;;;;6.47;1.20;;;;;;;-2.97;100.00;102325.88;5071980;28;20039;-76
2023/02/26 04:05:34;;;;;;;5.88;1.33;;;;;;;-2.92;100.00;102325.81;5071428;28;20142;-76
2023/02/26 04:07:59;;;;;;;7.38;1.70;;;;;;;-2.90;100.00;102327.50;5072224;28;20032;-77
2023/02/26 04:10:50;;;;;;;9.15;1.58;;;;;;;-2.89;100.00;102331.84;5072495;28;20075;-77
2023/02/26 04:13:15;;;;;;;6.82;1.20;;;;;;;-2.89;100.00;102334.47;5075938;28;20021;-77
2023/02/26 04:15:41;;;;;;;6.75;2.05;;;;;;;-2.93;100.00;102343.16;5075615;28;20407;-77
2023/02/26 04:18:06;;;;;;;4.72;1.40;;;;;;;-2.94;100.00;102333.66;5075815;28;20032;-77
2023/02/26 04:20:32;;;;;;;9.18;1.17;;;;;;;-2.94;100.00;102343.19;5075272;28;20028;-77
2023/02/26 04:22:57;;;;;;;10.35;1.27;;;;;;;-2.93;100.00;102351.00;5075670;28;20033;-77
2023/02/26 04:25:22;;;;;;;11.70;1.52;;;;;;;-2.94;100.00;102349.28;5075151;28;20029;-77
2023/02/26 04:27:48;;;;;;;5.30;1.10;;;;;;;-2.96;100.00;102351.03;5057478;28;20029;-77
2023/02/26 04:30:13;;;;;;;6.18;1.45;;;;;;;-2.98;100.00;102349.34;5075357;28;20025;-77
2023/02/26 04:32:38;;;;;;;16.92;2.28;;;;;;;-3.07;100.00;102345.06;5074586;28;20437;-77
2023/02/26 04:35:04;;;;;;;5.30;1.00;;;;;;;-3.13;100.00;102347.75;5075043;28;20029;-77
2023/02/26 04:37:29;;;;;;;0.70;0.65;;;;;;;-3.19;100.00;102349.50;5040264;28;20461;-77
2023/02/26 04:39:55;;;;;;;2.75;1.20;;;;;;;-3.28;100.00;102344.38;5074960;28;20029;-77
2023/02/26 04:42:20;;;;;;;4.90;1.30;;;;;;;-3.37;100.00;102350.53;5075226;28;20044;-77
2023/02/26 04:44:45;;;;;;;6.22;1.15;;;;;;;-3.41;100.00;102364.44;5074636;28;20044;-77
2023/02/26 04:47:11;;;;;;;11.23;1.70;;;;;;;-3.43;100.00;102376.59;5075127;28;20403;-77
2023/02/26 04:49:36;;;;;;;5.93;1.00;;;;;;;-3.47;100.00;102372.28;5074515;28;20121;-77
2023/02/26 04:52:02;;;;;;;4.03;1.27;;;;;;;-3.47;100.00;102384.44;5074640;28;20028;-77
2023/02/26 04:54:27;;;;;;;4.97;1.38;;;;;;;-3.44;100.00;102381.81;5074489;28;20470;-77
2023/02/26 04:56:53;;;;;;;7.70;1.17;;;;;;;-3.40;100.00;102386.13;5074992;28;20430;-77
2023/02/26 04:59:18;;;;;;;2.95;0.93;;;;;;;-3.39;100.00;102387.84;5074540;28;20025;-77
2023/02/26 05:01:43;;;;;;;5.00;1.20;;;;;;;-3.38;100.00;102384.38;5056215;28;20036;-77
2023/02/26 05:04:09;;;;;;;8.68;1.20;;;;;;;-3.39;100.00;102388.72;5074753;28;20032;-77
2023/02/26 05:06:34;;;;;;;7.15;1.65;;;;;;;-3.38;100.00;102392.19;5074314;28;20039;-77
2023/02/26 05:08:59;;;;;;;4.47;1.30;;;;;;;-3.35;100.00;102399.13;5074417;28;20540;-77
2023/02/26 05:11:25;;;;;;;5.40;0.70;;;;;;;-3.33;100.00;102394.75;5074647;28;20039;-77
2023/02/26 05:13:50;;;;;;;4.00;1.02;;;;;;;-3.31;100.00;102393.88;5073974;28;20079;-77
2023/02/26 05:16:16;;;;;;;8.60;1.55;;;;;;;-3.27;100.00;102392.97;5074424;28;20492;-77
2023/02/26 05:18:41;;;;;;;4.72;1.13;;;;;;;-3.20;100.00;102385.97;5074023;28;20028;-76
2023/02/26 05:21:06;;;;;;;8.40;1.40;;;;;;;-3.19;100.00;102396.38;5074061;28;20067;-77
2023/02/26 05:23:32;;;;;;;7.85;1.25;;;;;;;-3.15;100.00;102401.56;5074174;28;20480;-76
2023/02/26 05:25:57;;;;;;;6.80;1.25;;;;;;;-3.13;100.00;102394.59;5056227;28;20070;-77
2023/02/26 05:28:24;;;;;;;10.05;1.55;;;;;;;-3.04;100.00;102402.34;5074391;28;20028;-77
2023/02/26 05:30:50;;;;;;;5.25;1.30;;;;;;;-2.98;100.00;102404.88;5073866;28;20479;-77
2023/02/26 05:33:15;;;;;;;6.68;0.95;;;;;;;-2.97;100.00;102413.56;5074554;28;20059;-77
2023/02/26 05:35:40;;;;;;;7.18;1.10;;;;;;;-3.02;100.00;102411.84;5073822;28;20063;-77
2023/02/26 05:38:06;;;;;;;7.85;2.38;;;;;;;-3.08;100.00;102413.66;5074519;28;20029;-77
2023/02/26 05:40:31;;;;;;;4.65;1.13;;;;;;;-3.12;100.00;102415.44;5056003;28;20410;-77
2023/02/26 05:42:56;;;;;;;5.03;1.20;;;;;;;-3.15;100.00;102419.78;5058002;28;20036;-77
2023/02/26 05:45:22;;;;;;;6.03;2.25;;;;;;;-3.23;100.00;102425.91;5075923;28;20082;-77
2023/02/26 05:47:47;;;;;;;5.18;0.93;;;;;;;-3.31;100.00;102425.13;5075681;28;20032;-77
2023/02/26 05:50:13;;;;;;;2.08;0.82;;;;;;;-3.40;100.00;102430.38;5074833;28;20052;-76
2023/02/26 05:52:38;;;;;;;6.82;1.23;;;;;;;-3.45;100.00;102434.75;5073931;28;20051;-77
2023/02/26 05:55:04;;;;;;;9.10;1.02;;;;;;;-3.47;100.00;102441.72;5073984;28;20051;-77
2023/02/26 05:57:29;;;;;;;3.75;0.90;;;;;;;-3.51;100.00;102440.00;5073919;28;20357;-77
2023/02/26 05:59:55;;;;;;;7.07;1.60;;;;;;;-3.55;100.00;102436.56;5073786;28;20298;-77
2023/02/26 06:02:20;;;;;;;8.32;1.40;;;;;;;-3.56;100.00;102442.63;5073927;28;20025;-77
2023/02/26 06:04:46;;;;;;;4.40;1.10;;;;;;;-3.58;100.00;102447.84;5073216;28;20039;-77
2023/02/26 06:07:11;;;;;;;2.53;0.85;;;;;;;-3.61;100.00;102445.25;5073724;28;20035;-77
2023/02/26 06:09:36;;;;;;;11.93;1.05;;;;;;;-3.62;100.00;102453.94;5055196;28;20029;-77
2023/02/26 06:12:02;;;;;;;9.80;1.00;;;;;;;-3.63;100.00;102459.13;5073525;28;20035;-77
2023/02/26 06:14:27;;;;;;;4.03;0.98;;;;;;;-3.65;100.00;102456.53;5073530;28;20051;-77
2023/02/26 06:16:52;;;;;;;8.52;1.23;;;;;;;-3.67;100.00;102460.03;5073349;28;20058;-77
2023/02/26 06:19:20;;;;;;;5.60;1.05;;;;;;;-3.68;100.00;102466.13;5073572;28;20505;-77
2023/02/26 06:21:45;;;;;;;4.28;1.00;;;;;;;-3.69;100.00;102473.03;5073400;28;20028;-76
2023/02/26 06:24:11;;;;;;;6.47;0.85;;;;;;;-3.63;100.00;102482.56;5055790;28;20112;-77
2023/02/26 06:26:36;;;;;;;6.57;1.13;;;;;;;-3.55;100.00;102483.41;5073074;28;20032;-76
2023/02/26 06:29:02;;;;;;;2.42;1.05;;;;;;;-3.49;100.00;102493.78;5055523;28;20039;-77
2023/02/26 06:31:27;;;;;;;8.25;1.10;;;;;;;-3.47;100.00;102492.00;5073040;28;20052;-76
2023/02/26 06:33:52;;;;;;;7.93;1.27;;;;;;;-3.47;100.00;102502.44;5072236;28;20519;-76
2023/02/26 06:36:18;;;;;;;2.38;0.80;;;;;;;-3.47;100.00;102501.56;5073047;28;20032;-76
2023/02/26 06:38:44;;;;;;;8.95;1.05;;;;;;;-3.45;100.00;102508.50;5072557;28;20036;-76
2023/02/26 06:41:10;;;;;;;2.55;0.85;;;;;;;-3.43;100.00;102511.94;5073268;28;20165;-77
2023/02/26 06:43:35;;;;;;;3.97;1.02;;;;;;;-3.42;100.00;102513.69;5054918;28;20048;-76
2023/02/26 06:46:01;;;;;;;6.72;1.17;;;;;;;-3.40;100.00;102511.09;5072531;28;20032;-77
2023/02/26 06:48:27;;;;;;;3.17;0.90;;;;;;;-3.35;100.00;102519.72;5072507;28;20472;-76
2023/02/26 06:50:52;;;;;;;6.63;1.40;;;;;;;-3.29;100.00;102524.88;5054670;28;20040;-76
2023/02/26 06:53:17;;;;;;;10.15;1.67;;;;;;;-3.25;100.00;102520.53;5088450;28;20453;-76
2023/02/26 06:55:50;;;;;;;4.97;1.10;;;;;;;-3.26;100.00;102531.81;5072389;28;20163;-76
2023/02/26 06:58:15;;;;;;;2.05;1.25;;;;;;;-3.24;100.00;102537.88;5072964;28;20028;-77
2023/02/26 07:00:40;;;;;;;2.92;1.00;;;;;;;-3.22;100.00;102544.81;5072174;28;20025;-76
2023/02/26 07:03:09;;;;;;;2.72;1.13;;;;;;;-3.22;100.00;102549.16;5072600;28;20448;-77
2023/02/26 07:05:34;;;;;;;6.40;0.98;;;;;;;-3.21;100.00;102550.88;5072497;28;20024;-76
2023/02/26 07:07:59;;;;;;;6.50;1.00;;;;;;;-3.15;100.00;102557.78;5072204;28;20035;-76
2023/02/26 07:10:25;;;;;;;6.13;1.17;;;;;;;-3.12;100.00;102558.66;5072944;28;20027;-77
2023/02/26 07:12:50;;;;;;;8.68;1.25;;;;;;;-3.12;100.00;102563.88;5071780;28;20036;-76
2023/02/26 07:15:16;;;;;;;2.85;1.23;;;;;;;-3.08;100.00;102568.16;5072452;28;20033;-77
2023/02/26 07:17:42;;;;;;;5.50;1.08;;;;;;;-3.02;100.00;102568.13;5072461;28;20334;-76
2023/02/26 07:20:09;;;;;;;3.47;1.42;;;;;;;-2.97;100.00;102578.53;5072414;28;20082;-78
2023/02/26 07:22:36;;;;;;;6.78;1.13;;;;;;;-2.94;100.00;102568.09;5071982;28;20024;-76
2023/02/26 07:25:01;;;;;;;3.22;1.00;;;;;;;-2.88;100.00;102575.88;5071875;28;20025;-75
2023/02/26 07:27:28;;;;;;;3.60;0.93;;;;;;;-2.83;100.00;102583.66;5072077;28;20040;-79
2023/02/26 07:29:54;;;;;;;3.38;1.05;;;;;;;-2.78;100.00;102584.47;5072052;28;20032;-76
2023/02/26 07:32:19;;;;;;;5.28;0.98;;;;;;;-2.72;100.00;102592.25;5072364;28;20442;-76
2023/02/26 07:34:44;;;;;;;5.60;1.00;;;;;;;-2.64;100.00;102589.59;5071975;28;20333;-76
2023/02/26 07:37:10;;;;;;;5.75;1.40;;;;;;;-2.58;100.00;102597.38;5072359;28;20070;-77
2023/02/26 07:39:35;;;;;;;7.63;2.22;;;;;;;-2.46;100.00;102599.03;5054161;28;20119;-77
2023/02/26 07:42:01;;;;;;;5.13;1.15;;;;;;;-2.28;100.00;102602.34;5071496;28;20131;-77
2023/02/26 07:44:26;;;;;;;5.90;1.23;;;;;;;-2.11;100.00;102608.28;5072302;28;20028;-76
2023/02/26 07:46:51;;;;;;;6.68;1.58;;;;;;;-1.98;100.00;102616.88;5075222;28;20106;-76
2023/02/26 07:49:17;;;;;;;3.92;0.93;;;;;;;-1.87;100.00;102609.78;5058328;28;20045;-76
2023/02/26 07:51:44;;;;;;;4.28;1.13;;;;;;;-1.75;100.00;102600.09;5076027;28;20024;-76
2023/02/26 07:54:12;;;;;;;4.18;1.40;;;;;;;-1.60;100.00;102605.13;5075651;28;20047;-76
2023/02/26 07:56:38;;;;;;;2.97;0.98;;;;;;;-1.46;100.00;102608.47;5076039;28;20036;-76
2023/02/26 07:59:04;;;;;;;4.78;1.10;;;;;;;-1.32;100.00;102616.13;5075590;28;20116;-76
2023/02/26 08:01:29;;;;;;;1.67;1.00;;;;;;;-1.18;100.00;102615.09;5075684;28;20111;-76
2023/02/26 08:03:55;;;;;;;5.28;1.83;;;;;;;-1.04;100.00;102618.41;5075218;28;20052;-76
2023/02/26 08:06:20;;;;;;;3.33;1.40;;;;;;;-0.89;100.00;102617.31;5075838;28;20035;-76
2023/02/26 08:08:46;;;;;;;7.50;1.67;;;;;;;-0.75;100.00;102628.47;5075939;28;20062;-76
2023/02/26 08:11:12;;;;;;;8.65;1.85;;;;;;;-0.60;100.00;102631.72;5075260;28;20063;-76
2023/02/26 08:13:37;;;;;;;5.88;1.40;;;;;;;-0.45;100.00;102630.59;5075747;28;20360;-76
2023/02/26 08:16:02;;;;;;;3.75;1.20;;;;;;;-0.31;100.00;102635.63;5075255;28;20024;-76
2023/02/26 08:18:28;;;;;;;6.65;1.27;;;;;;;-0.16;100.00;102638.00;5075591;28;20032;-76
2023/02/26 08:20:53;;;;;;;3.63;1.08;;;;;;;-0.07;100.00;102642.22;5074785;28;20025;-76
2023/02/26 08:23:18;;;;;;;3.58;1.33;;;;;;;0.04;100.00;102645.50;5075469;28;20036;-76
2023/02/26 08:25:44;;;;;;;4.55;1.27;;;;;;;0.15;100.00;102650.53;5075305;28;20372;-76
2023/02/26 08:28:10;;;;;;;6.45;1.70;;;;;;;0.29;100.00;102647.69;5057012;28;20044;-76
2023/02/26 08:30:36;;;;;;;8.52;1.75;;;;;;;0.46;100.00;102657.84;5075464;28;20484;-75
2023/02/26 08:33:01;;;;;;;1.30;0.75;;;;;;;0.61;100.00;102656.66;5074535;28;20033;-76
2023/02/26 08:35:27;;;;;;;10.68;1.20;;;;;;;0.75;100.00;102661.63;5075153;28;20350;-75
2023/02/26 08:37:53;;;;;;;4.25;1.02;;;;;;;0.88;100.00;102655.25;5075415;28;20027;-74
2023/02/26 08:40:19;;;;;;;5.93;1.13;;;;;;;1.01;100.00;102661.94;5075561;28;20055;-76
2023/02/26 08:42:44;;;;;;;3.33;0.93;;;;;;;1.17;100.00;102666.88;5075050;28;20481;-75
2023/02/26 08:45:10;;;;;;;7.10;0.80;;;;;;;1.30;100.00;102673.59;5056934;28;20028;-75
2023/02/26 08:47:36;;;;;;;1.58;0.63;;;;;;;1.46;100.00;102673.22;5057083;28;20139;-77
2023/02/26 08:50:02;;;;;;;4.68;0.90;;;;;;;1.54;100.00;102680.03;5074774;28;20044;-77
2023/02/26 08:52:27;;;;;;;2.20;0.65;;;;;;;1.67;100.00;102684.97;5074984;28;20032;-75
2023/02/26 08:54:52;;;;;;;5.20;1.08;;;;;;;1.73;100.00;102692.72;5074821;28;20032;-75
2023/02/26 08:57:18;;;;;;;7.53;1.10;;;;;;;1.87;100.00;102700.28;5073873;28;20345;-75
2023/02/26 08:59:43;;;;;;;6.32;0.85;;;;;;;2.03;100.00;102691.13;5075148;28;20052;-75
2023/02/26 09:02:13;;;;;;;8.88;1.15;;;;;;;2.27;100.00;102696.66;5074457;28;20025;-77
2023/02/26 09:04:38;;;;;;;4.68;0.63;;;;;;;2.58;100.00;102696.69;5056782;28;20112;-76
2023/02/26 09:07:04;;;;;;;6.45;0.93;;;;;;;2.96;94.65;102707.03;5074232;28;20523;-76
2023/02/26 09:09:29;;;;;;;6.05;1.00;;;;;;;3.62;84.63;102701.56;5074942;28;20069;-75
2023/02/26 09:11:54;;;;;;;4.60;1.00;;;;;;;4.80;70.40;102701.09;5074304;28;20028;-76
2023/02/26 09:14:20;;;;;;;3.38;1.00;;;;;;;6.11;64.51;102711.88;5074200;28;20035;-76
2023/02/26 09:16:45;;;;;;;4.28;0.85;;;;;;;7.32;58.75;102702.97;5074488;28;20035;-76
2023/02/26 09:19:11;;;;;;;1.77;0.65;;;;;;;8.18;53.19;102711.19;5074069;28;20029;-77
2023/02/26 09:21:36;;;;;;;3.08;1.15;;;;;;;8.88;48.49;102711.09;5074032;28;20190;-76
2023/02/26 09:24:02;;;;;;;4.40;1.10;;;;;;;9.48;45.58;102725.56;5073980;28;20024;-77
2023/02/26 09:26:27;;;;;;;5.30;1.52;;;;;;;9.98;45.30;102727.16;5074625;28;20024;-75
2023/02/26 09:28:53;;;;;;;4.88;1.05;;;;;;;10.43;43.66;102727.22;5074389;28;20124;-72
2023/02/26 09:31:18;;;;;;;3.92;1.15;;;;;;;10.93;42.56;102728.59;5073610;28;20036;-76
2023/02/26 09:33:43;;;;;;;2.90;0.85;;;;;;;11.29;41.57;102731.72;5056167;28;20373;-75
2023/02/26 09:36:09;;;;;;;3.22;0.90;;;;;;;11.35;40.10;102736.66;5055838;28;20032;-74
2023/02/26 09:38:35;;;;;;;6.95;0.93;;;;;;;11.28;38.81;102738.00;5073856;28;20107;-74
2023/02/26 09:41:15;;;;;;;2.03;0.80;;;;;;;11.08;39.66;102745.44;5074954;28;20384;-74
2023/02/26 09:44:07;;;;;;;3.90;0.90;;;;;;;11.44;38.81;102740.56;5056756;28;20025;-73
2023/02/26 09:46:32;;;;;;;;;;;;;;;11.58;39.49;102745.81;5056429;28;20025;-73
2023/02/26 09:49:14;;;;;;;8.90;0.80;;;;;;;12.02;39.27;102751.91;5073610;28;19919;-73
2023/02/26 09:51:42;;;;;;;5.25;1.13;;;;;;;11.98;38.80;102755.75;5073736;28;20278;-74
2023/02/26 09:54:21;;;;;;;5.93;1.13;;;;;;;12.03;37.68;102752.78;5073418;28;20035;-73
2023/02/26 09:56:48;;;;;;;3.97;0.82;;;;;;;11.87;38.29;102763.56;5073848;28;20024;-73
2023/02/26 09:59:14;;;;;;;0.98;0.52;;;;;;;11.89;37.96;102761.66;5073296;28;20029;-73
2023/02/26 10:02:17;;;;;;;1.25;0.80;;;;;;;11.81;38.15;102770.16;5073518;28;20043;-73
2023/02/26 10:04:54;;;;;;;4.68;1.40;;;;;;;12.29;37.46;102767.06;5073479;28;20057;-74
2023/02/26 10:07:32;;;;;;;3.67;0.77;;;;;;;12.12;36.83;102774.38;5072713;28;20051;-74
2023/02/26 10:10:36;;;;;;;3.70;0.93;;;;;;;10.52;38.62;102776.38;5073270;28;20025;-75
2023/02/26 10:13:02;;;;;;;6.18;1.30;;;;;;;10.27;40.68;102780.47;5073284;28;20029;-74
2023/02/26 10:15:36;;;;;;;4.03;1.08;;;;;;;10.81;40.09;102779.97;5072989;28;20467;-76
2023/02/26 10:18:22;;;;;;;1.23;0.70;;;;;;;11.77;39.17;102782.81;5073398;28;20029;-74
2023/02/26 10:20:50;;;;;;;2.80;0.80;;;;;;;12.70;37.00;102782.03;5066564;28;20037;-74
2023/02/26 10:23:38;;;;;;;3.95;0.98;;;;;;;12.97;35.60;102784.66;5063075;28;20031;-74
2023/02/26 10:26:18;;;;;;;4.63;1.00;;;;;;;12.99;35.93;102790.72;5072365;28;20086;-74
2023/02/26 10:28:56;;;;;;;7.55;1.23;;;;;;;12.92;36.12;102800.13;5072440;28;20112;-73
2023/02/26 10:31:42;;;;;;;1.27;0.70;;;;;;;12.85;36.38;102797.03;5071936;28;20457;-73
2023/02/26 10:34:31;;;;;;;6.07;0.90;;;;;;;12.29;36.65;102805.25;5072053;28;20064;-75
2023/02/26 10:37:03;;;;;;;9.43;0.98;;;;;;;12.65;36.54;102806.41;5072513;28;20039;-74
2023/02/26 10:39:42;;;;;;;5.32;0.88;;;;;;;12.72;35.44;102811.31;5071727;28;20086;-74
2023/02/26 10:42:29;;;;;;;4.07;0.80;;;;;;;11.86;37.25;102808.06;5071789;28;20021;-74
2023/02/26 10:45:23;;;;;;;3.60;0.90;;;;;;;11.05;39.13;102811.38;5072221;28;20035;-73
2023/02/26 10:48:04;;;;;;;2.67;0.70;;;;;;;10.54;39.60;102819.75;5045846;28;20032;-73
2023/02/26 10:50:30;;;;;;;4.22;1.00;;;;;;;10.33;39.51;102813.81;5071785;28;20457;-74
2023/02/26 10:52:56;;;;;;;4.72;0.77;;;;;;;10.75;39.64;102820.28;5071832;28;20024;-75
2023/02/26 10:55:40;;;;;;;1.70;0.60;;;;;;;11.10;39.69;102819.94;5071339;28;20384;-74
2023/02/26 10:58:13;;;;;;;3.67;1.20;;;;;;;11.17;38.67;102818.63;5071817;28;20092;-73
2023/02/26 11:00:40;;;;;;;2.50;0.70;;;;;;;12.34;38.83;102816.47;5071804;28;20036;-75
2023/02/26 11:03:09;;;;;;;2.28;0.90;;;;;;;12.23;36.94;102819.03;5071748;28;20020;-74
2023/02/26 11:05:35;;;;;;;3.95;1.35;;;;;;;12.01;37.64;102824.06;5071874;28;20035;-75
2023/02/26 11:08:31;;;;;;;3.92;1.00;;;;;;;11.36;38.82;102825.44;5071517;28;20021;-76
2023/02/26 11:11:03;;;;;;;3.22;0.90;;;;;;;10.43;40.08;102824.84;5059016;28;20119;-75
2023/02/26 11:13:31;;;;;;;;;;;;;;;9.86;42.19;102828.91;5071842;28;20032;-74
2023/02/26 11:16:00;;;;;;;2.95;0.73;;;;;;;9.35;43.37;102829.03;5071580;28;20279;-76
2023/02/26 11:18:47;;;;;;;4.63;1.20;;;;;;;8.69;42.97;102822.72;5071829;28;20020;-75
2023/02/26 11:21:24;;;;;;;3.03;1.05;;;;;;;8.06;46.41;102831.09;5054038;28;20094;-75
2023/02/26 11:23:57;;;;;;;3.58;0.85;;;;;;;7.56;46.85;102825.47;5071621;28;20029;-73
2023/02/26 11:26:29;;;;;;;2.80;0.98;;;;;;;7.01;48.08;102828.78;5071505;28;20457;-73
2023/02/26 11:28:57;;;;;;;5.18;1.02;;;;;;;7.12;49.34;102827.47;5071832;28;20028;-74
2023/02/26 11:31:24;;;;;;;3.13;1.10;;;;;;;7.49;49.35;102820.53;5071299;28;20025;-73
2023/02/26 11:33:54;;;;;;;2.65;0.57;;;;;;;7.80;50.04;102825.25;5071777;28;20043;-73